Time;durP1;ratioP1;P1;durP2;ratioP2;P2;SDS_P1;SDS_P2;PMS_P1;PMS_P2;Temp;Humidity;BMP_temperature;BMP_pressure;BME280_temperature;BME280_humidity;BME280_pressure;Samples;Min_cycle;Max_cycle;Signal;HPM_P1;HPM_P2
2022/10/25 00:00:42;;;;;;;0.68;0.10;;;23.00;58.40;;;;;;5030730;28;20041;-55
2022/10/25 00:03:10;;;;;;;2.80;0.10;;;23.00;58.30;;;;;;5030540;28;20045;-57
2022/10/25 00:05:38;;;;;;;2.50;0.10;;;23.10;58.30;;;;;;5041436;28;20044;-56
2022/10/25 00:08:06;;;;;;;1.85;0.47;;;23.10;58.20;;;;;;5051332;28;20045;-56
2022/10/25 00:10:34;;;;;;;2.50;0.10;;;23.10;58.10;;;;;;5051178;28;20132;-56
2022/10/25 00:13:02;;;;;;;1.35;0.45;;;23.10;58.00;;;;;;5050262;28;20069;-56
2022/10/25 00:15:30;;;;;;;4.28;0.30;;;23.20;57.90;;;;;;5049953;28;20041;-56
2022/10/25 00:17:57;;;;;;;3.20;0.10;;;23.10;57.80;;;;;;5050096;28;20552;-54
2022/10/25 00:20:24;;;;;;;1.92;0.20;;;23.20;57.70;;;;;;5050415;28;20052;-54
2022/10/25 00:22:51;;;;;;;2.92;0.55;;;23.20;57.60;;;;;;5051152;28;20041;-55
2022/10/25 00:25:18;;;;;;;0.50;0.20;;;23.20;57.60;;;;;;5050679;28;20477;-56
2022/10/25 00:27:45;;;;;;;1.13;0.10;;;23.20;57.50;;;;;;5050798;28;20103;-56
2022/10/25 00:30:14;;;;;;;3.58;0.45;;;23.20;57.40;;;;;;5049050;28;20548;-57
2022/10/25 00:32:41;;;;;;;0.65;0.10;;;23.20;57.30;;;;;;5050587;28;20132;-55
2022/10/25 00:35:09;;;;;;;3.17;0.10;;;23.20;57.30;;;;;;5050213;28;20043;-57
2022/10/25 00:37:36;;;;;;;2.42;0.10;;;23.30;57.20;;;;;;5050482;28;20048;-52
2022/10/25 00:40:04;;;;;;;1.10;0.10;;;23.30;57.20;;;;;;5050715;28;20506;-55
2022/10/25 00:42:31;;;;;;;2.25;0.20;;;23.30;57.10;;;;;;5050479;28;20128;-55
2022/10/25 00:45:00;;;;;;;1.40;0.10;;;23.30;57.10;;;;;;5050174;28;20047;-56
2022/10/25 00:47:42;;;;;;;2.25;0.10;;;23.30;57.00;;;;;;5049956;28;20064;-57
2022/10/25 00:50:18;;;;;;;1.23;0.10;;;23.30;56.90;;;;;;5049968;28;20053;-53
2022/10/25 00:52:49;;;;;;;2.15;0.25;;;23.30;56.80;;;;;;5050205;28;20043;-57
2022/10/25 00:55:18;;;;;;;0.47;0.05;;;23.30;56.80;;;;;;5049839;28;20048;-55
2022/10/25 00:57:51;;;;;;;4.05;0.35;;;23.30;56.70;;;;;;5049991;28;20040;-53
2022/10/25 01:00:19;;;;;;;2.42;0.20;;;23.30;56.70;;;;;;5049572;28;20076;-55
2022/10/25 01:02:48;;;;;;;2.58;0.10;;;23.30;56.60;;;;;;5049524;28;20044;-57
2022/10/25 01:05:16;;;;;;;3.40;0.40;;;23.30;56.60;;;;;;5050140;28;20079;-57
2022/10/25 01:07:44;;;;;;;2.17;0.10;;;23.30;56.60;;;;;;5050150;28;20041;-54
2022/10/25 01:10:11;;;;;;;1.10;0.10;;;23.40;56.60;;;;;;5050146;28;20063;-56
2022/10/25 01:12:38;;;;;;;3.70;0.10;;;23.30;56.50;;;;;;5046848;28;20140;-53
2022/10/25 01:15:06;;;;;;;1.58;0.17;;;23.30;56.40;;;;;;5061667;28;20051;-57
2022/10/25 01:17:41;;;;;;;3.28;0.25;;;23.30;56.40;;;;;;5069272;28;20063;-56
2022/10/25 01:20:39;;;;;;;2.90;0.10;;;23.30;56.40;;;;;;5069423;28;20071;-54
2022/10/25 01:23:23;;;;;;;2.75;0.10;;;23.30;56.30;;;;;;5069330;28;20056;-54
2022/10/25 01:26:27;;;;;;;2.13;0.10;;;23.40;56.40;;;;;;5063467;28;20094;-57
2022/10/25 01:29:13;;;;;;;1.17;0.10;;;23.30;56.30;;;;;;5049779;28;20425;-57
2022/10/25 01:31:45;;;;;;;1.55;0.20;;;23.30;56.30;;;;;;5048851;28;20071;-56
2022/10/25 01:34:17;;;;;;;1.65;0.10;;;23.30;56.30;;;;;;5048992;28;20033;-57
2022/10/25 01:36:51;;;;;;;2.35;0.38;;;23.30;56.30;;;;;;5049500;28;20067;-56
2022/10/25 01:39:24;;;;;;;1.67;0.15;;;23.30;56.30;;;;;;5049197;28;20600;-57
2022/10/25 01:42:01;;;;;;;1.35;0.10;;;23.40;56.30;;;;;;5049443;28;20045;-57
2022/10/25 01:44:36;;;;;;;2.42;0.00;;;23.30;56.20;;;;;;5049368;28;20528;-57
2022/10/25 01:47:06;;;;;;;;;;;23.40;56.20;;;;;;5049594;28;20041;-54
2022/10/25 01:49:41;;;;;;;2.28;0.63;;;23.30;56.20;;;;;;5048732;28;20569;-57
2022/10/25 01:52:08;;;;;;;1.20;0.35;;;23.30;56.30;;;;;;5048842;28;20482;-58
2022/10/25 01:54:36;;;;;;;0.10;0.10;;;23.30;56.30;;;;;;5048700;28;20045;-59
2022/10/25 01:57:21;;;;;;;3.25;0.10;;;23.30;56.20;;;;;;5048624;28;20047;-56
2022/10/25 02:00:07;;;;;;;2.15;1.33;;;23.30;56.10;;;;;;5048358;28;20071;-58
2022/10/25 02:02:54;;;;;;;1.23;0.52;;;23.40;56.10;;;;;;5048872;28;20103;-57
2022/10/25 02:05:26;;;;;;;2.72;0.20;;;23.30;56.10;;;;;;5048726;28;20068;-51
2022/10/25 02:08:01;;;;;;;13.05;1.15;;;23.30;56.10;;;;;;5048706;28;20045;-57
2022/10/25 02:10:35;;;;;;;0.63;0.20;;;23.30;56.10;;;;;;5048419;28;20141;-53
2022/10/25 02:13:10;;;;;;;5.28;0.20;;;23.30;56.00;;;;;;5048757;28;20041;-53
2022/10/25 02:15:39;;;;;;;3.13;0.20;;;23.30;56.00;;;;;;5048063;28;20037;-55
2022/10/25 02:18:14;;;;;;;4.38;0.00;;;23.30;56.00;;;;;;5048349;28;20053;-54
2022/10/25 02:20:43;;;;;;;3.00;0.10;;;23.40;56.00;;;;;;5048440;28;20041;-54
2022/10/25 02:23:10;;;;;;;1.10;0.10;;;23.30;55.90;;;;;;5048277;28;20124;-55
2022/10/25 02:25:41;;;;;;;2.92;0.70;;;23.30;55.90;;;;;;5047798;28;20069;-57
2022/10/25 02:28:14;;;;;;;3.40;0.10;;;23.40;55.90;;;;;;5047984;28;20128;-56
2022/10/25 02:30:43;;;;;;;3.25;0.38;;;23.40;55.90;;;;;;5048471;28;20123;-55
2022/10/25 02:33:12;;;;;;;3.80;0.10;;;23.30;55.80;;;;;;5047681;28;20043;-57
2022/10/25 02:35:39;;;;;;;4.60;0.10;;;23.40;55.90;;;;;;5047938;28;20063;-54
2022/10/25 02:38:06;;;;;;;2.60;0.10;;;23.40;55.90;;;;;;5047919;28;20055;-57
2022/10/25 02:40:35;;;;;;;4.45;0.65;;;23.30;55.80;;;;;;5047494;28;20090;-56
2022/10/25 02:43:02;;;;;;;3.67;0.28;;;23.30;56.30;;;;;;5048102;28;20073;-55
2022/10/25 02:45:29;;;;;;;2.75;0.10;;;23.40;55.80;;;;;;5047780;28;20052;-55
2022/10/25 02:47:56;;;;;;;0.95;0.57;;;23.30;55.70;;;;;;5048016;28;20158;-54
2022/10/25 02:50:24;;;;;;;3.85;0.10;;;23.40;55.80;;;;;;5047785;28;20067;-57
2022/10/25 02:52:51;;;;;;;1.63;0.45;;;23.30;55.70;;;;;;5048099;28;20132;-51
2022/10/25 02:55:18;;;;;;;1.58;0.30;;;23.30;55.70;;;;;;5047652;28;20049;-55
2022/10/25 02:57:45;;;;;;;4.05;0.20;;;23.30;55.70;;;;;;5047365;28;20049;-53
2022/10/25 03:00:13;;;;;;;1.95;0.20;;;23.30;55.60;;;;;;5047637;28;20040;-55
2022/10/25 03:02:41;;;;;;;0.80;0.00;;;23.30;55.70;;;;;;5046308;28;20536;-53
2022/10/25 03:05:08;;;;;;;1.00;0.10;;;23.30;55.70;;;;;;5046269;28;20609;-53
2022/10/25 03:07:37;;;;;;;1.85;0.00;;;23.40;55.70;;;;;;5047656;28;20815;-52
2022/10/25 03:10:04;;;;;;;5.05;0.55;;;23.40;55.70;;;;;;5047893;28;20048;-57
2022/10/25 03:12:31;;;;;;;0.98;0.10;;;23.40;55.70;;;;;;5047402;28;20131;-50
2022/10/25 03:14:58;;;;;;;2.60;0.40;;;23.40;55.70;;;;;;5046079;28;20064;-52
2022/10/25 03:17:25;;;;;;;1.13;0.45;;;23.40;55.60;;;;;;5047672;28;20051;-59
2022/10/25 03:19:52;;;;;;;0.82;0.10;;;23.40;55.70;;;;;;5047481;28;20517;-57
2022/10/25 03:22:19;;;;;;;2.33;0.30;;;23.40;55.70;;;;;;5046936;28;20037;-57
2022/10/25 03:24:48;;;;;;;1.80;0.10;;;23.40;55.70;;;;;;5047997;28;20052;-56
2022/10/25 03:27:16;;;;;;;2.72;0.10;;;23.50;55.80;;;;;;5047039;28;20040;-55
2022/10/25 03:29:43;;;;;;;3.08;0.17;;;23.40;55.80;;;;;;5047330;28;20049;-55
2022/10/25 03:32:10;;;;;;;3.15;0.10;;;23.40;55.80;;;;;;5046965;28;20072;-56
2022/10/25 03:34:37;;;;;;;0.47;0.10;;;23.40;55.80;;;;;;5047533;28;20041;-56
2022/10/25 03:37:04;;;;;;;2.05;0.10;;;23.40;55.90;;;;;;5047400;28;20529;-56
2022/10/25 03:39:31;;;;;;;3.38;0.30;;;23.50;55.90;;;;;;5047223;28;20052;-58
2022/10/25 03:42:00;;;;;;;5.82;0.10;;;23.40;55.80;;;;;;5046914;28;20122;-55
2022/10/25 03:44:27;;;;;;;0.40;0.13;;;23.50;55.80;;;;;;5047707;28;20037;-56
2022/10/25 03:46:54;;;;;;;5.15;0.20;;;23.50;55.90;;;;;;5047334;28;20041;-57
2022/10/25 03:49:21;;;;;;;2.05;0.38;;;23.40;55.80;;;;;;5047239;28;20041;-57
2022/10/25 03:51:48;;;;;;;3.75;0.10;;;23.50;55.80;;;;;;5047145;28;20157;-55
2022/10/25 03:54:15;;;;;;;2.83;0.10;;;23.50;55.80;;;;;;5047336;28;20045;-55
2022/10/25 03:56:42;;;;;;;4.20;0.10;;;23.50;55.90;;;;;;5047323;28;20072;-55
2022/10/25 03:59:10;;;;;;;0.65;0.00;;;23.50;55.80;;;;;;5047170;28;20048;-57
2022/10/25 04:01:37;;;;;;;4.22;0.10;;;23.50;55.80;;;;;;5047038;28;20567;-57
2022/10/25 04:04:05;;;;;;;0.20;0.10;;;23.50;55.70;;;;;;5047050;28;20045;-56
2022/10/25 04:06:32;;;;;;;1.10;0.10;;;23.50;55.70;;;;;;5046663;28;20429;-57
2022/10/25 04:08:59;;;;;;;2.47;0.10;;;23.50;55.70;;;;;;5047015;28;20051;-55
2022/10/25 04:11:26;;;;;;;0.93;0.10;;;23.50;55.70;;;;;;5046906;28;20076;-57
2022/10/25 04:13:53;;;;;;;4.32;0.35;;;23.50;55.70;;;;;;5047378;28;20037;-56
2022/10/25 04:16:22;;;;;;;1.70;1.05;;;23.50;55.70;;;;;;5046764;28;20056;-55
2022/10/25 04:18:50;;;;;;;1.60;0.10;;;23.50;55.70;;;;;;5046940;28;20049;-59
2022/10/25 04:21:17;;;;;;;1.50;0.20;;;23.50;55.70;;;;;;5046852;28;20130;-56
2022/10/25 04:23:44;;;;;;;0.10;0.10;;;23.50;55.70;;;;;;5047123;28;20045;-55
2022/10/25 04:26:13;;;;;;;0.73;0.00;;;23.50;55.70;;;;;;5046398;28;20045;-57
2022/10/25 04:28:40;;;;;;;3.03;0.20;;;23.50;55.60;;;;;;5046864;28;20037;-56
2022/10/25 04:31:07;;;;;;;1.10;0.03;;;23.50;55.60;;;;;;5045078;28;20389;-56
2022/10/25 04:33:35;;;;;;;0.25;0.10;;;23.50;55.50;;;;;;5047117;28;20117;-56
2022/10/25 04:36:02;;;;;;;5.22;0.20;;;23.50;55.50;;;;;;5049789;28;20041;-52
2022/10/25 04:38:29;;;;;;;3.35;0.28;;;23.50;55.40;;;;;;5050040;28;20410;-52
2022/10/25 04:40:57;;;;;;;2.92;0.57;;;23.50;55.40;;;;;;5050082;28;20124;-56
2022/10/25 04:43:26;;;;;;;3.80;0.30;;;23.50;55.40;;;;;;5050519;28;20390;-50
2022/10/25 04:45:53;;;;;;;3.28;0.10;;;23.50;55.40;;;;;;5050239;28;20049;-55
2022/10/25 04:48:22;;;;;;;1.83;0.10;;;23.50;55.30;;;;;;5050114;28;20393;-54
2022/10/25 04:50:50;;;;;;;6.75;0.70;;;23.50;55.20;;;;;;5050280;28;20124;-53
2022/10/25 04:53:17;;;;;;;2.22;0.30;;;23.50;55.20;;;;;;5050047;28;20041;-55
2022/10/25 04:55:45;;;;;;;1.90;0.10;;;23.50;55.20;;;;;;5050134;28;20049;-57
2022/10/25 04:58:12;;;;;;;4.60;0.50;;;23.50;55.20;;;;;;5049012;28;20044;-54
2022/10/25 05:00:38;;;;;;;3.40;0.10;;;23.50;55.20;;;;;;5050306;28;20148;-55
2022/10/25 05:03:05;;;;;;;3.72;0.30;;;23.50;55.20;;;;;;5049924;28;20037;-57
2022/10/25 05:05:32;;;;;;;4.18;0.10;;;23.50;55.20;;;;;;5049897;28;20154;-55
2022/10/25 05:08:01;;;;;;;0.10;0.10;;;23.50;55.20;;;;;;5048993;28;20048;-56
2022/10/25 05:10:28;;;;;;;0.82;0.15;;;23.50;55.20;;;;;;5046558;28;20063;-52
2022/10/25 05:12:55;;;;;;;1.20;0.30;;;23.50;55.20;;;;;;5050029;28;20047;-54
2022/10/25 05:15:22;;;;;;;0.50;0.00;;;23.50;55.20;;;;;;5049309;28;20127;-55
2022/10/25 05:17:49;;;;;;;2.90;0.10;;;23.50;55.20;;;;;;5049227;28;20790;-53
2022/10/25 05:20:16;;;;;;;4.50;0.47;;;23.50;55.20;;;;;;5049285;28;20060;-56
2022/10/25 05:22:43;;;;;;;1.05;0.10;;;23.50;55.20;;;;;;5049269;28;20383;-61
2022/10/25 05:25:11;;;;;;;0.75;0.10;;;23.50;55.20;;;;;;5049552;28;20059;-54
2022/10/25 05:27:39;;;;;;;2.80;0.10;;;23.50;55.30;;;;;;5049481;28;20508;-56
2022/10/25 05:30:07;;;;;;;2.90;0.68;;;23.50;55.30;;;;;;5049618;28;20045;-56
2022/10/25 05:32:34;;;;;;;0.80;0.10;;;23.40;55.20;;;;;;5068341;28;20060;-56
2022/10/25 05:35:01;;;;;;;3.60;0.73;;;23.40;55.30;;;;;;5040327;28;20905;-55
2022/10/25 05:37:28;;;;;;;2.88;0.17;;;23.40;55.30;;;;;;5049166;28;20740;-57
2022/10/25 05:39:55;;;;;;;2.60;0.10;;;23.40;55.30;;;;;;5049526;28;20576;-51
2022/10/25 05:42:23;;;;;;;1.30;0.10;;;23.40;55.30;;;;;;5049412;28;20037;-52
2022/10/25 05:44:50;;;;;;;1.67;0.43;;;23.40;55.40;;;;;;5048839;28;20061;-55
2022/10/25 05:47:17;;;;;;;3.17;0.10;;;23.40;55.40;;;;;;5049046;28;20033;-54
2022/10/25 05:49:44;;;;;;;2.17;0.30;;;23.40;55.40;;;;;;5049067;28;20500;-52
2022/10/25 05:52:12;;;;;;;1.10;0.10;;;23.40;55.40;;;;;;5047376;28;20041;-55
2022/10/25 05:54:39;;;;;;;1.50;0.32;;;23.40;55.40;;;;;;5048841;28;20040;-55
2022/10/25 05:57:06;;;;;;;4.47;0.10;;;23.40;55.50;;;;;;5048914;28;20106;-56
2022/10/25 05:59:34;;;;;;;0.70;0.10;;;23.40;55.50;;;;;;5049061;28;20139;-56
2022/10/25 06:02:01;;;;;;;9.63;0.43;;;23.40;55.60;;;;;;5049768;28;20048;-61
2022/10/25 06:04:28;;;;;;;6.93;0.73;;;23.40;55.60;;;;;;5058350;28;20072;-62
2022/10/25 06:06:56;;;;;;;2.90;0.10;;;23.40;56.00;;;;;;5062425;28;20816;-60
2022/10/25 06:09:23;;;;;;;9.23;0.52;;;23.40;56.20;;;;;;5051696;28;20121;-57
2022/10/25 06:11:50;;;;;;;6.43;0.10;;;23.50;56.40;;;;;;5064433;28;20218;-61
2022/10/25 06:14:17;;;;;;;8.48;0.75;;;23.50;56.40;;;;;;5050545;28;20041;-62
2022/10/25 06:16:46;;;;;;;8.20;0.40;;;23.50;55.20;;;;;;5059601;28;20123;-62
2022/10/25 06:19:13;;;;;;;6.47;0.30;;;23.40;54.30;;;;;;5053019;28;20049;-63
2022/10/25 06:21:40;;;;;;;4.60;1.05;;;23.10;54.20;;;;;;5064344;28;20528;-59
2022/10/25 06:24:08;;;;;;;7.43;0.65;;;22.90;54.30;;;;;;5054560;28;20072;-58
2022/10/25 06:26:35;;;;;;;5.00;0.57;;;22.70;54.50;;;;;;5065840;28;20050;-57
2022/10/25 06:29:04;;;;;;;10.10;0.95;;;22.40;54.80;;;;;;5065331;28;20048;-57
2022/10/25 06:31:32;;;;;;;5.70;1.42;;;22.20;55.20;;;;;;5048537;28;20041;-67
2022/10/25 06:34:01;;;;;;;8.20;0.40;;;22.10;55.50;;;;;;5062857;28;20047;-66
2022/10/25 06:36:29;;;;;;;7.13;0.30;;;21.90;55.90;;;;;;5056406;28;20063;-65
2022/10/25 06:38:57;;;;;;;4.60;1.38;;;21.80;56.20;;;;;;5054735;28;20055;-65
2022/10/25 06:41:26;;;;;;;5.60;0.50;;;21.70;56.40;;;;;;5048150;28;20041;-64
2022/10/25 06:43:54;;;;;;;5.43;0.30;;;21.60;56.70;;;;;;5063115;28;20509;-64
2022/10/25 06:46:24;;;;;;;4.30;0.98;;;21.50;57.00;;;;;;5055716;28;20047;-62
2022/10/25 06:48:52;;;;;;;8.38;1.15;;;21.40;57.10;;;;;;5055316;28;20053;-64
2022/10/25 06:51:21;;;;;;;5.30;1.00;;;21.30;57.30;;;;;;5063259;28;20054;-62
2022/10/25 06:53:54;;;;;;;2.83;0.50;;;21.20;57.50;;;;;;5063958;28;20078;-68
2022/10/25 06:56:21;;;;;;;3.90;0.30;;;21.10;57.60;;;;;;5055233;28;20041;-65
2022/10/25 06:58:48;;;;;;;9.75;1.20;;;21.00;57.90;;;;;;5055926;28;20051;-63
2022/10/25 07:01:17;;;;;;;8.00;0.60;;;21.00;58.10;;;;;;5045245;28;20036;-63
2022/10/25 07:03:45;;;;;;;4.75;0.22;;;21.00;58.10;;;;;;5050714;28;20036;-62
2022/10/25 07:06:13;;;;;;;2.33;0.10;;;21.00;58.00;;;;;;5061671;28;20044;-73
2022/10/25 07:08:43;;;;;;;4.25;0.85;;;21.00;57.90;;;;;;5058454;28;20041;-66
2022/10/25 07:11:15;;;;;;;6.90;1.45;;;21.10;57.80;;;;;;5052817;28;20501;-65
2022/10/25 07:13:42;;;;;;;3.40;0.20;;;21.10;57.60;;;;;;5066091;28;20044;-66
2022/10/25 07:16:11;;;;;;;3.67;0.20;;;21.20;57.60;;;;;;5045365;28;20028;-59
2022/10/25 07:18:39;;;;;;;4.43;1.52;;;21.20;57.60;;;;;;5056156;28;20120;-67
2022/10/25 07:21:08;;;;;;;15.23;1.33;;;21.20;57.60;;;;;;5063024;28;20052;-68
2022/10/25 07:23:40;;;;;;;3.65;0.77;;;21.10;57.70;;;;;;5051992;28;20047;-64
2022/10/25 07:26:10;;;;;;;9.77;0.40;;;21.20;57.80;;;;;;5062830;28;20046;-62
2022/10/25 07:28:37;;;;;;;4.18;0.43;;;21.20;58.90;;;;;;5057882;28;20047;-55
2022/10/25 07:31:04;;;;;;;1.85;1.25;;;21.10;59.10;;;;;;5053896;28;20525;-52
2022/10/25 07:33:32;;;;;;;1.05;0.15;;;21.20;59.30;;;;;;5050532;28;20067;-62
2022/10/25 07:35:59;;;;;;;3.38;0.30;;;21.10;59.20;;;;;;5068297;28;20082;-77
2022/10/25 07:38:26;;;;;;;4.07;0.28;;;21.00;59.20;;;;;;5054729;28;20055;-71
2022/10/25 07:40:56;;;;;;;2.90;0.22;;;21.00;59.40;;;;;;5055046;28;20132;-71
2022/10/25 07:43:25;;;;;;;5.30;0.52;;;21.00;59.40;;;;;;5068569;28;20044;-69
2022/10/25 07:45:53;;;;;;;7.22;0.30;;;21.00;59.30;;;;;;5062720;28;20059;-69
2022/10/25 07:48:20;;;;;;;4.40;0.22;;;20.90;59.30;;;;;;5049763;28;20454;-69
2022/10/25 07:50:48;;;;;;;4.88;0.40;;;21.00;59.10;;;;;;5059793;28;20037;-66
2022/10/25 07:53:15;;;;;;;6.18;0.88;;;20.90;59.10;;;;;;5052201;28;20119;-62
2022/10/25 07:55:42;;;;;;;3.35;0.70;;;20.90;59.10;;;;;;5064097;28;20539;-70
2022/10/25 07:58:11;;;;;;;10.45;0.30;;;20.90;59.20;;;;;;5053950;28;20029;-65
2022/10/25 08:00:39;;;;;;;5.82;0.55;;;20.90;59.10;;;;;;5056689;28;20045;-63
2022/10/25 08:03:06;;;;;;;4.65;1.20;;;20.90;59.10;;;;;;5044007;28;20047;-63
2022/10/25 08:05:33;;;;;;;7.75;0.30;;;20.90;59.10;;;;;;5063469;28;20409;-60
2022/10/25 08:08:00;;;;;;;4.13;0.40;;;20.80;59.10;;;;;;5047822;28;20084;-59
2022/10/25 08:10:27;;;;;;;4.30;0.20;;;20.90;59.10;;;;;;5057510;28;20040;-57
2022/10/25 08:12:55;;;;;;;4.85;0.47;;;20.80;59.20;;;;;;5058152;28;20506;-58
2022/10/25 08:15:23;;;;;;;2.40;0.57;;;20.80;59.10;;;;;;5052874;28;20045;-56
2022/10/25 08:17:58;;;;;;;2.17;0.10;;;20.80;59.10;;;;;;5033023;28;20037;-57
2022/10/25 08:20:26;;;;;;;0.80;0.55;;;20.90;59.00;;;;;;5045812;28;20045;-67
2022/10/25 08:22:53;;;;;;;3.22;1.33;;;20.90;58.90;;;;;;5053152;28;20047;-60
2022/10/25 08:25:20;;;;;;;11.30;1.35;;;20.90;58.90;;;;;;5056085;28;20052;-59
2022/10/25 08:27:47;;;;;;;11.60;0.90;;;21.00;59.40;;;;;;5055634;28;20056;-58
2022/10/25 08:30:14;;;;;;;4.32;0.15;;;20.90;58.70;;;;;;5063548;28;20115;-56
2022/10/25 08:32:41;;;;;;;4.28;0.25;;;21.00;58.60;;;;;;5060944;28;20044;-58
2022/10/25 08:35:09;;;;;;;3.75;1.58;;;21.00;58.40;;;;;;5055794;28;20049;-58
2022/10/25 08:37:36;;;;;;;0.60;0.52;;;21.00;58.40;;;;;;5052173;28;20455;-56
2022/10/25 08:40:04;;;;;;;2.72;0.20;;;21.00;58.30;;;;;;5066148;28;20077;-71
2022/10/25 08:42:42;;;;;;;5.35;0.10;;;21.10;58.30;;;;;;5061577;28;20044;-63
2022/10/25 08:45:15;;;;;;;2.55;0.25;;;21.10;58.10;;;;;;5055301;28;20095;-64
2022/10/25 08:47:44;;;;;;;2.78;0.43;;;21.10;57.90;;;;;;5066380;28;20120;-63
2022/10/25 08:50:19;;;;;;;0.57;0.10;;;21.10;57.70;;;;;;5056652;28;20567;-63
2022/10/25 08:52:48;;;;;;;2.70;0.10;;;21.10;57.40;;;;;;5058923;28;20040;-62
2022/10/25 08:55:17;;;;;;;4.07;0.20;;;21.20;56.90;;;;;;5065039;28;20163;-60
2022/10/25 08:57:48;;;;;;;6.20;0.38;;;21.10;56.30;;;;;;5053109;28;20036;-59
2022/10/25 09:00:19;;;;;;;1.35;0.10;;;21.00;55.90;;;;;;5062256;28;20621;-61
2022/10/25 09:02:51;;;;;;;8.27;0.10;;;20.80;55.90;;;;;;5059086;28;20451;-62
2022/10/25 09:05:34;;;;;;;4.03;0.10;;;20.70;56.00;;;;;;5065432;28;20044;-59
2022/10/25 09:08:26;;;;;;;1.90;0.10;;;20.60;56.30;;;;;;5063164;28;20821;-61
2022/10/25 09:11:02;;;;;;;4.32;0.20;;;20.40;56.10;;;;;;5060154;28;20572;-58
2022/10/25 09:13:33;;;;;;;;;;;20.30;56.40;;;;;;5053139;28;20043;-59
2022/10/25 09:16:09;;;;;;;0.55;0.00;;;20.10;56.50;;;;;;5068359;28;20015;-61
2022/10/25 09:18:42;;;;;;;1.65;0.10;;;20.00;57.00;;;;;;5059079;28;20255;-59
2022/10/25 09:21:16;;;;;;;9.60;0.40;;;19.90;57.00;;;;;;5048908;28;20099;-59
2022/10/25 09:23:48;;;;;;;2.00;0.15;;;19.90;57.10;;;;;;5049660;28;20786;-59
2022/10/25 09:26:21;;;;;;;1.05;0.20;;;19.80;57.30;;;;;;5049470;28;20036;-59
2022/10/25 09:28:53;;;;;;;4.38;0.65;;;19.80;57.60;;;;;;5049053;28;20497;-59
2022/10/25 09:31:24;;;;;;;7.72;1.30;;;19.80;57.60;;;;;;5049465;28;20138;-57
2022/10/25 09:33:56;;;;;;;0.45;0.10;;;19.70;57.70;;;;;;5048531;28;20208;-58
2022/10/25 09:36:27;;;;;;;2.88;0.50;;;19.70;57.80;;;;;;5049146;28;20045;-58
2022/10/25 09:38:58;;;;;;;1.75;0.20;;;19.70;57.90;;;;;;5048974;28;20116;-59
2022/10/25 09:41:32;;;;;;;2.00;0.15;;;19.70;57.80;;;;;;5049280;28;20064;-59
2022/10/25 09:44:03;;;;;;;2.80;0.10;;;19.70;57.90;;;;;;5048687;28;20048;-61
2022/10/25 09:46:36;;;;;;;2.22;0.13;;;19.70;58.00;;;;;;5048735;28;20045;-58
2022/10/25 09:49:08;;;;;;;2.20;0.10;;;19.70;58.00;;;;;;5048768;28;20041;-59
2022/10/25 09:51:44;;;;;;;0.90;0.15;;;19.70;58.00;;;;;;5048698;28;20041;-58
2022/10/25 09:54:17;;;;;;;3.05;0.10;;;19.70;58.00;;;;;;5048654;28;20041;-59
2022/10/25 09:56:44;;;;;;;2.00;0.10;;;19.70;58.00;;;;;;5048790;28;20120;-59
2022/10/25 09:59:14;;;;;;;4.20;0.30;;;19.70;58.10;;;;;;5048496;28;20045;-59
2022/10/25 10:01:42;;;;;;;1.70;0.17;;;19.70;57.90;;;;;;5048677;28;20628;-59
2022/10/25 10:04:25;;;;;;;3.42;0.40;;;19.70;58.30;;;;;;5048575;28;20044;-60
2022/10/25 10:06:58;;;;;;;1.17;0.10;;;19.70;57.80;;;;;;5048517;28;20788;-57
2022/10/25 10:09:29;;;;;;;9.20;0.52;;;19.80;57.90;;;;;;5048891;28;20037;-59
2022/10/25 10:11:59;;;;;;;5.65;1.13;;;19.70;57.70;;;;;;5048983;28;20076;-59
2022/10/25 10:14:31;;;;;;;4.63;0.40;;;19.70;57.70;;;;;;5048129;28;20045;-58
2022/10/25 10:17:00;;;;;;;3.55;1.65;;;19.80;57.80;;;;;;5048278;28;20494;-59
2022/10/25 10:19:29;;;;;;;2.13;0.10;;;19.80;57.90;;;;;;5048644;28;20456;-59
2022/10/25 10:22:00;;;;;;;2.40;0.20;;;19.80;57.90;;;;;;5048710;28;20052;-59
2022/10/25 10:24:30;;;;;;;1.38;0.10;;;19.90;57.80;;;;;;5048259;28;20045;-58
2022/10/25 10:26:59;;;;;;;4.90;1.02;;;19.90;58.00;;;;;;5047834;28;20071;-59
2022/10/25 10:29:28;;;;;;;0.45;0.10;;;20.00;58.00;;;;;;5048339;28;20040;-60
2022/10/25 10:31:57;;;;;;;2.50;0.10;;;20.00;58.00;;;;;;5048488;28;20124;-59
2022/10/25 10:34:30;;;;;;;3.95;0.88;;;20.10;57.90;;;;;;5048197;28;20119;-58
2022/10/25 10:37:12;;;;;;;3.78;0.45;;;20.10;57.80;;;;;;5048044;28;20126;-58
2022/10/25 10:39:49;;;;;;;2.20;0.10;;;20.30;57.60;;;;;;5048300;28;20037;-59
2022/10/25 10:42:18;;;;;;;4.40;0.20;;;20.30;57.70;;;;;;5047945;28;20049;-60
2022/10/25 10:45:12;;;;;;;3.95;0.10;;;20.30;57.70;;;;;;5048360;28;20044;-59
2022/10/25 10:47:42;;;;;;;3.08;0.20;;;20.50;57.50;;;;;;5047639;28;20041;-60
2022/10/25 10:50:12;;;;;;;1.90;0.10;;;20.40;57.50;;;;;;5047880;28;20048;-60
2022/10/25 10:52:44;;;;;;;4.50;0.10;;;20.50;57.60;;;;;;5047709;28;20072;-60
2022/10/25 10:55:18;;;;;;;2.97;0.30;;;20.60;57.60;;;;;;5046291;28;20171;-61
2022/10/25 10:57:46;;;;;;;5.78;0.32;;;20.70;57.70;;;;;;5047414;28;20037;-60
2022/10/25 11:00:22;;;;;;;3.80;0.10;;;20.80;57.60;;;;;;5047945;28;20044;-60
2022/10/25 11:02:49;;;;;;;2.88;0.30;;;20.90;57.80;;;;;;5047628;28;20044;-61
2022/10/25 11:05:21;;;;;;;3.80;0.47;;;20.90;57.80;;;;;;5044503;28;20033;-60
2022/10/25 11:07:56;;;;;;;3.90;0.20;;;21.10;57.80;;;;;;5027480;28;20041;-61
2022/10/25 11:10:28;;;;;;;0.57;0.20;;;21.20;57.60;;;;;;5027316;28;20053;-60
2022/10/25 11:13:14;;;;;;;4.50;0.10;;;21.30;57.30;;;;;;5027783;28;20115;-60
2022/10/25 11:16:15;;;;;;;1.95;0.10;;;21.40;56.90;;;;;;5027345;28;20095;-60
2022/10/25 11:19:08;;;;;;;3.15;0.68;;;21.60;56.80;;;;;;5038183;28;20037;-61
2022/10/25 11:21:48;;;;;;;4.85;0.85;;;21.70;56.50;;;;;;5045975;28;20143;-61
2022/10/25 11:24:26;;;;;;;3.65;0.30;;;21.70;56.30;;;;;;5047488;28;20041;-60
2022/10/25 11:27:00;;;;;;;5.85;1.23;;;21.80;56.20;;;;;;5046998;28;20140;-60
2022/10/25 11:29:45;;;;;;;1.83;0.22;;;21.90;56.60;;;;;;5047390;28;20124;-60
2022/10/25 11:32:43;;;;;;;1.13;0.82;;;22.00;55.70;;;;;;5047594;28;20128;-60
2022/10/25 11:35:22;;;;;;;9.32;0.28;;;22.00;55.70;;;;;;5047129;28;20849;-60
2022/10/25 11:37:56;;;;;;;1.75;0.20;;;22.10;55.20;;;;;;5047401;28;20502;-60
2022/10/25 11:40:30;;;;;;;3.72;0.25;;;22.10;54.90;;;;;;5046905;28;20124;-58
2022/10/25 11:43:09;;;;;;;4.32;0.63;;;22.20;54.80;;;;;;5048260;28;20056;-61
2022/10/25 11:45:41;;;;;;;5.25;0.30;;;22.20;54.50;;;;;;5051008;28;20124;-60
2022/10/25 11:48:59;;;;;;;6.75;0.75;;;22.30;54.50;;;;;;5051281;28;20741;-59
2022/10/25 11:51:36;;;;;;;3.42;0.50;;;22.40;54.40;;;;;;5007865;28;20510;-60
2022/10/25 11:54:26;;;;;;;3.70;0.30;;;22.30;54.20;;;;;;5008496;28;20053;-61
2022/10/25 11:57:07;;;;;;;3.80;0.30;;;22.40;54.30;;;;;;5008530;28;20185;-59
2022/10/25 11:59:43;;;;;;;5.90;0.20;;;22.40;54.30;;;;;;5008853;28;20069;-60
2022/10/25 12:02:42;;;;;;;3.90;0.30;;;22.40;54.20;;;;;;5008250;28;20056;-59
2022/10/25 12:05:22;;;;;;;1.80;0.75;;;22.50;54.30;;;;;;5008587;28;20064;-59
2022/10/25 12:07:56;;;;;;;5.60;0.47;;;22.60;54.20;;;;;;5008684;28;20060;-59
2022/10/25 12:10:32;;;;;;;6.80;0.38;;;22.60;54.00;;;;;;5008479;28;20037;-61
2022/10/25 12:13:03;;;;;;;4.80;0.52;;;22.70;53.90;;;;;;5009051;28;20148;-63
2022/10/25 12:15:36;;;;;;;3.53;0.22;;;22.70;53.70;;;;;;5022339;28;20069;-63
2022/10/25 12:18:05;;;;;;;4.70;0.57;;;22.80;53.50;;;;;;5011838;28;20042;-63
2022/10/25 12:20:34;;;;;;;4.25;0.30;;;22.90;53.20;;;;;;4995319;28;20585;-61
2022/10/25 12:23:03;;;;;;;4.05;0.25;;;22.90;53.10;;;;;;5019782;28;20065;-62
2022/10/25 12:25:33;;;;;;;2.70;0.20;;;23.00;53.10;;;;;;5016656;28;20057;-67
2022/10/25 12:28:10;;;;;;;9.45;1.27;;;23.00;53.00;;;;;;5042911;28;20041;-63
2022/10/25 12:30:41;;;;;;;3.55;0.10;;;23.10;53.00;;;;;;5039131;28;20040;-66
2022/10/25 12:33:18;;;;;;;3.85;1.67;;;23.10;52.90;;;;;;5061744;28;20052;-68
2022/10/25 12:35:49;;;;;;;1.83;0.15;;;23.20;52.90;;;;;;5063955;28;20041;-64
2022/10/25 12:38:23;;;;;;;1.42;0.20;;;23.20;52.80;;;;;;5053118;28;20044;-63
2022/10/25 12:40:54;;;;;;;7.20;0.60;;;23.20;52.60;;;;;;5063780;28;20101;-63
2022/10/25 12:43:31;;;;;;;6.25;0.30;;;23.30;52.50;;;;;;5052600;28;20127;-71
2022/10/25 12:46:44;;;;;;;5.45;0.57;;;23.30;52.50;;;;;;5048200;28;20045;-64
2022/10/25 12:49:27;;;;;;;3.70;0.25;;;23.30;52.40;;;;;;5052889;28;20048;-64
2022/10/25 12:52:21;;;;;;;3.85;0.40;;;23.40;52.30;;;;;;5054935;28;20072;-63
2022/10/25 12:55:22;;;;;;;2.00;0.10;;;23.40;52.10;;;;;;5040347;28;20052;-64
2022/10/25 12:58:00;;;;;;;5.18;1.58;;;23.40;52.10;;;;;;5055620;28;20132;-64
2022/10/25 13:00:35;;;;;;;5.57;0.65;;;23.50;52.30;;;;;;5066258;28;20072;-64
2022/10/25 13:03:35;;;;;;;7.10;0.75;;;23.50;52.10;;;;;;5057374;28;20115;-64
2022/10/25 13:06:34;;;;;;;4.38;0.10;;;23.60;51.90;;;;;;5052913;28;20055;-59
2022/10/25 13:09:06;;;;;;;2.80;0.10;;;23.60;52.00;;;;;;5044810;28;20040;-59